Time;durP1;ratioP1;P1;durP2;ratioP2;P2;SDS_P1;SDS_P2;PMS_P1;PMS_P2;Temp;Humidity;BMP_temperature;BMP_pressure;BME280_temperature;BME280_humidity;BME280_pressure;Samples;Min_cycle;Max_cycle;Signal;HPM_P1;HPM_P2
2021/04/30 00:02:11;;;;;;;3.70;1.60;;;;;;;19.61;34.96;100994.00;5071387;28;20020;-68
2021/04/30 00:04:36;;;;;;;6.90;1.65;;;;;;;19.62;34.78;100997.59;5046410;28;20036;-68
2021/04/30 00:07:01;;;;;;;3.28;1.52;;;;;;;19.63;34.98;101000.19;5066749;28;20023;-68
2021/04/30 00:09:27;;;;;;;4.05;1.42;;;;;;;19.64;34.63;100991.16;5050559;28;20024;-68
2021/04/30 00:11:52;;;;;;;4.93;1.70;;;;;;;19.60;35.02;100994.97;5065113;28;20029;-68
2021/04/30 00:14:18;;;;;;;3.30;1.50;;;;;;;19.62;35.02;100986.78;5047175;28;20017;-68
2021/04/30 00:16:43;;;;;;;3.97;1.67;;;;;;;19.64;35.03;100995.66;5051018;28;20016;-68
2021/04/30 00:19:09;;;;;;;4.35;1.58;;;;;;;19.66;34.91;100993.75;5051086;28;20845;-68
2021/04/30 00:21:36;;;;;;;4.57;1.55;;;;;;;19.63;34.93;100989.38;5066778;28;20039;-68
2021/04/30 00:24:02;;;;;;;3.08;1.33;;;;;;;19.63;34.90;100993.91;5050597;28;20029;-68
2021/04/30 00:26:28;;;;;;;4.32;1.65;;;;;;;19.66;34.80;100983.81;5036763;28;20844;-68
2021/04/30 00:28:54;;;;;;;3.92;1.63;;;;;;;19.64;35.12;100983.06;5049891;28;20032;-68
2021/04/30 00:31:19;;;;;;;4.00;1.40;;;;;;;19.63;34.96;100981.28;5045762;28;20464;-68
2021/04/30 00:33:45;;;;;;;4.15;1.50;;;;;;;19.67;34.71;100985.56;5044967;28;20552;-68
2021/04/30 00:36:10;;;;;;;3.47;1.30;;;;;;;19.64;34.87;100992.97;5064726;28;20033;-68
2021/04/30 00:38:35;;;;;;;3.17;1.42;;;;;;;19.65;34.70;100998.25;5046710;28;20490;-68
2021/04/30 00:41:01;;;;;;;3.42;1.25;;;;;;;19.66;34.61;100988.34;5049786;28;20047;-68
2021/04/30 00:43:26;;;;;;;3.25;1.20;;;;;;;19.67;34.61;100993.66;5066982;28;20028;-68
2021/04/30 00:45:53;;;;;;;3.30;1.40;;;;;;;19.68;34.75;100994.53;5048515;28;20028;-68
2021/04/30 00:48:19;;;;;;;3.45;1.30;;;;;;;19.68;34.96;100997.22;5043924;28;20020;-68
2021/04/30 00:50:44;;;;;;;4.07;1.52;;;;;;;19.69;35.03;101001.66;5037095;28;20135;-68
2021/04/30 00:53:10;;;;;;;3.33;1.45;;;;;;;19.68;34.74;100991.84;5043628;28;20040;-68
2021/04/30 00:55:37;;;;;;;3.95;1.48;;;;;;;19.68;35.02;100999.94;5036710;28;20035;-68
2021/04/30 00:58:02;;;;;;;3.35;1.58;;;;;;;19.68;34.87;101000.78;5040997;28;20032;-68
2021/04/30 01:00:30;;;;;;;4.43;1.30;;;;;;;19.67;34.93;101003.56;5016146;28;20082;-68
2021/04/30 01:02:55;;;;;;;3.42;1.30;;;;;;;19.72;34.79;101003.31;5033206;28;20051;-68
2021/04/30 01:05:21;;;;;;;3.38;1.50;;;;;;;19.71;34.58;101002.44;5059622;28;20020;-68
2021/04/30 01:07:47;;;;;;;3.47;1.30;;;;;;;19.72;34.74;101000.59;5033868;28;20024;-68
2021/04/30 01:10:13;;;;;;;3.53;1.42;;;;;;;19.73;34.88;101005.03;5066475;28;20566;-68
2021/04/30 01:12:40;;;;;;;2.35;1.25;;;;;;;19.73;35.24;101008.59;5039118;28;20570;-68
2021/04/30 01:15:06;;;;;;;4.93;1.40;;;;;;;19.73;34.84;101011.31;5051238;28;20124;-68
2021/04/30 01:17:33;;;;;;;3.33;1.30;;;;;;;19.74;34.85;101009.44;5049549;28;20028;-68
2021/04/30 01:19:58;;;;;;;3.67;1.40;;;;;;;19.72;34.51;101022.19;5051012;28;20025;-68
2021/04/30 01:22:33;;;;;;;3.33;1.30;;;;;;;19.73;34.85;101018.53;5069686;28;20028;-68
2021/04/30 01:24:59;;;;;;;3.10;1.20;;;;;;;19.75;34.63;101025.59;5029925;28;20032;-68
2021/04/30 01:27:24;;;;;;;4.20;1.30;;;;;;;19.74;34.80;101020.25;5059349;28;20025;-68
2021/04/30 01:29:49;;;;;;;3.08;1.15;;;;;;;19.73;34.82;101022.09;5067605;28;20016;-68
2021/04/30 01:32:15;;;;;;;3.22;1.20;;;;;;;19.74;34.97;101028.34;5044691;28;20027;-68
2021/04/30 01:34:40;;;;;;;3.45;1.30;;;;;;;19.76;34.89;101024.59;5032099;28;20021;-68
2021/04/30 01:37:05;;;;;;;3.40;1.30;;;;;;;19.76;34.69;101030.00;5049214;28;20032;-68
2021/04/30 01:39:31;;;;;;;2.85;1.13;;;;;;;19.76;34.85;101032.69;5063496;28;20512;-68
2021/04/30 01:41:56;;;;;;;5.18;1.40;;;;;;;19.76;34.70;101038.09;5043998;28;20147;-68
2021/04/30 01:44:21;;;;;;;2.72;1.38;;;;;;;19.76;34.61;101027.31;5046396;28;20029;-68
2021/04/30 01:46:47;;;;;;;4.20;1.65;;;;;;;19.77;35.46;101030.88;5064192;28;20661;-68
2021/04/30 01:49:12;;;;;;;4.78;1.40;;;;;;;19.77;34.57;101030.88;5051804;28;20032;-68
2021/04/30 01:51:38;;;;;;;3.35;1.40;;;;;;;19.78;34.75;101028.09;5063198;28;20053;-68
2021/04/30 01:54:04;;;;;;;2.55;1.30;;;;;;;19.74;34.56;101029.22;5047750;28;20016;-68
2021/04/30 01:56:29;;;;;;;3.33;1.17;;;;;;;19.79;34.57;101040.59;5037168;28;20026;-68
2021/04/30 01:58:54;;;;;;;3.60;1.23;;;;;;;19.77;34.54;101037.13;5057497;28;20024;-68
2021/04/30 02:01:20;;;;;;;3.72;1.45;;;;;;;19.78;34.63;101041.56;5070689;28;20036;-68
2021/04/30 02:03:45;;;;;;;2.80;1.40;;;;;;;19.78;34.29;101041.56;5058487;28;20082;-68
2021/04/30 02:06:10;;;;;;;4.00;1.20;;;;;;;19.78;34.16;101043.41;5050048;28;20103;-68
2021/04/30 02:08:36;;;;;;;2.67;1.30;;;;;;;19.75;34.48;101033.69;5039680;28;20086;-67
2021/04/30 02:11:01;;;;;;;2.78;1.25;;;;;;;19.80;34.77;101046.88;5035556;28;20027;-68
2021/04/30 02:13:27;;;;;;;3.17;1.20;;;;;;;19.78;34.80;101046.97;5050838;28;20059;-68
2021/04/30 02:15:53;;;;;;;3.38;1.20;;;;;;;19.80;34.34;101046.88;5019645;28;20036;-68
2021/04/30 02:18:18;;;;;;;2.83;1.25;;;;;;;19.83;34.65;101053.94;5029003;28;20021;-68
2021/04/30 02:20:44;;;;;;;2.75;1.40;;;;;;;19.82;34.76;101046.78;5049318;28;20028;-68
2021/04/30 02:23:09;;;;;;;4.63;1.40;;;;;;;19.82;34.33;101054.88;5048586;28;20031;-68
2021/04/30 02:25:34;;;;;;;2.65;1.27;;;;;;;19.82;34.35;101041.38;5032760;28;20024;-68
2021/04/30 02:28:00;;;;;;;3.55;1.30;;;;;;;19.83;34.07;101049.38;5044958;28;20054;-68
2021/04/30 02:30:26;;;;;;;3.58;1.30;;;;;;;19.82;34.61;101042.25;5051527;28;20514;-68
2021/04/30 02:32:52;;;;;;;3.42;1.58;;;;;;;19.83;34.50;101044.00;5049151;28;20028;-68
2021/04/30 02:35:19;;;;;;;3.88;1.25;;;;;;;19.83;34.63;101037.75;5067224;28;20107;-68
2021/04/30 02:37:44;;;;;;;3.05;1.40;;;;;;;19.80;34.87;101039.66;5067959;28;20020;-68
2021/04/30 02:40:10;;;;;;;4.40;1.38;;;;;;;19.84;34.62;101042.16;5052198;28;20355;-68
2021/04/30 02:42:36;;;;;;;4.18;1.40;;;;;;;19.84;34.62;101043.03;5057123;28;20031;-68
2021/04/30 02:45:02;;;;;;;2.92;1.20;;;;;;;19.85;34.21;101046.59;5049591;28;20059;-68
2021/04/30 02:47:32;;;;;;;3.63;1.50;;;;;;;19.86;34.67;101046.53;5070443;28;20017;-68
2021/04/30 02:49:58;;;;;;;2.55;1.20;;;;;;;19.85;34.21;101042.06;5048781;28;20028;-68
2021/04/30 02:52:23;;;;;;;2.92;1.50;;;;;;;19.87;34.61;101050.06;5035407;28;20112;-68
2021/04/30 02:54:49;;;;;;;4.93;1.40;;;;;;;19.85;34.21;101046.59;5065615;28;20029;-68
2021/04/30 02:57:14;;;;;;;3.75;1.45;;;;;;;19.87;34.66;101050.94;5066214;28;20390;-68
2021/04/30 02:59:39;;;;;;;2.90;1.17;;;;;;;19.85;34.51;101043.88;5050550;28;20024;-68
2021/04/30 03:02:05;;;;;;;2.97;1.40;;;;;;;19.86;34.51;101046.53;5028978;28;20060;-68
2021/04/30 03:04:30;;;;;;;3.10;1.23;;;;;;;19.89;34.79;101040.06;5050758;28;20099;-68
2021/04/30 03:06:56;;;;;;;4.00;1.30;;;;;;;19.87;34.43;101039.28;5065880;28;20397;-68
2021/04/30 03:09:21;;;;;;;3.08;1.25;;;;;;;19.91;34.35;101039.00;5040884;28;20017;-68
2021/04/30 03:11:46;;;;;;;2.63;1.10;;;;;;;19.91;34.19;101032.72;5068991;28;20028;-68
2021/04/30 03:14:12;;;;;;;3.42;1.33;;;;;;;19.92;34.36;101038.03;5067287;28;20120;-68
2021/04/30 03:16:37;;;;;;;3.80;1.30;;;;;;;19.90;34.59;101031.00;5069206;28;20021;-68
2021/04/30 03:19:03;;;;;;;2.50;1.30;;;;;;;19.91;34.52;101027.34;5063393;28;20023;-68
2021/04/30 03:21:28;;;;;;;2.22;1.25;;;;;;;19.90;34.43;101031.84;5032700;28;20226;-68
2021/04/30 03:23:54;;;;;;;3.45;1.38;;;;;;;19.90;34.44;101023.75;5066631;28;20038;-68
2021/04/30 03:26:19;;;;;;;4.00;1.52;;;;;;;19.94;34.58;101027.13;5047923;28;20029;-68
2021/04/30 03:28:45;;;;;;;2.95;1.30;;;;;;;19.88;34.60;101019.44;5051033;28;20036;-68
2021/04/30 03:31:10;;;;;;;3.83;1.48;;;;;;;19.92;34.55;101026.38;5038103;28;20567;-68
2021/04/30 03:33:36;;;;;;;3.65;1.40;;;;;;;19.94;34.46;101031.69;5035000;28;20037;-68
2021/04/30 03:36:01;;;;;;;5.22;1.60;;;;;;;19.95;34.33;101030.72;5016660;28;21228;-68
2021/04/30 03:38:27;;;;;;;3.08;1.30;;;;;;;19.97;34.53;101031.50;5041378;28;20040;-68
2021/04/30 03:40:52;;;;;;;3.25;1.42;;;;;;;19.95;34.57;101037.00;5047538;28;20518;-68
2021/04/30 03:43:17;;;;;;;3.03;1.40;;;;;;;19.95;34.71;101039.69;5047826;28;20020;-68
2021/04/30 03:45:43;;;;;;;3.20;1.45;;;;;;;19.96;34.40;101041.41;5069648;28;20034;-68
2021/04/30 03:48:08;;;;;;;3.08;1.40;;;;;;;19.97;34.26;101042.28;5051442;28;20474;-68
2021/04/30 03:50:33;;;;;;;3.30;1.52;;;;;;;19.99;34.29;101049.34;5050103;28;20036;-68
2021/04/30 03:52:59;;;;;;;4.47;1.50;;;;;;;19.98;34.34;101046.72;5062998;28;20039;-68
2021/04/30 03:55:24;;;;;;;4.03;1.58;;;;;;;19.99;34.64;101060.16;5067602;28;20024;-68
2021/04/30 03:57:49;;;;;;;4.18;1.70;;;;;;;20.00;34.55;101056.47;5067156;28;20020;-68
2021/04/30 04:00:15;;;;;;;4.45;1.50;;;;;;;20.02;34.56;101053.69;5068966;28;20085;-68
2021/04/30 04:02:41;;;;;;;3.00;1.58;;;;;;;20.02;34.18;101045.56;5063698;28;20029;-68
2021/04/30 04:05:06;;;;;;;4.00;1.40;;;;;;;20.02;34.34;101050.97;5068928;28;20023;-68
2021/04/30 04:07:32;;;;;;;3.63;1.55;;;;;;;20.03;34.31;101041.94;5047890;28;20043;-68
2021/04/30 04:09:57;;;;;;;4.00;1.40;;;;;;;20.03;34.66;101045.47;5062164;28;20524;-68
2021/04/30 04:12:22;;;;;;;4.13;1.58;;;;;;;20.03;34.19;101044.63;5048271;28;20028;-68
2021/04/30 04:14:48;;;;;;;3.75;1.70;;;;;;;20.01;34.24;101041.16;5047919;28;20017;-68
2021/04/30 04:17:16;;;;;;;3.97;1.55;;;;;;;20.00;34.45;101040.28;5050137;28;20024;-68
2021/04/30 04:19:41;;;;;;;3.17;1.40;;;;;;;20.02;34.79;101049.16;5031149;28;20021;-68
2021/04/30 04:22:07;;;;;;;3.35;1.60;;;;;;;20.04;34.73;101047.22;5033656;28;20497;-68
2021/04/30 04:24:32;;;;;;;4.60;1.85;;;;;;;20.04;34.20;101046.34;5066612;28;20503;-67
2021/04/30 04:26:57;;;;;;;2.97;1.48;;;;;;;20.04;34.54;101040.97;5061259;28;20031;-68
2021/04/30 04:29:23;;;;;;;3.60;1.55;;;;;;;20.05;34.46;101037.28;5045609;28;20017;-68
2021/04/30 04:31:48;;;;;;;3.88;1.33;;;;;;;20.07;34.29;101026.44;5049594;28;20027;-68
2021/04/30 04:34:13;;;;;;;3.17;1.40;;;;;;;20.08;34.40;101031.75;5062240;28;20482;-68
2021/04/30 04:36:39;;;;;;;3.00;1.60;;;;;;;20.09;34.22;101032.59;5050514;28;20040;-68
2021/04/30 04:39:05;;;;;;;3.15;1.60;;;;;;;20.06;35.43;101028.28;5061434;28;20016;-68
2021/04/30 04:41:30;;;;;;;3.63;1.63;;;;;;;20.08;34.43;101033.56;5048917;28;20021;-68
2021/04/30 04:43:55;;;;;;;3.80;1.50;;;;;;;20.11;34.51;101030.69;5049615;28;20032;-68
2021/04/30 04:46:21;;;;;;;2.72;1.30;;;;;;;20.09;34.43;101032.59;5030577;28;20024;-68
2021/04/30 04:48:46;;;;;;;4.15;1.40;;;;;;;20.11;34.28;101036.06;5044247;28;20025;-68
2021/04/30 04:51:12;;;;;;;3.20;1.70;;;;;;;20.11;34.63;101042.34;5050143;28;20549;-68
2021/04/30 04:53:37;;;;;;;4.07;1.73;;;;;;;20.08;34.59;101044.38;5061230;28;20027;-68
2021/04/30 04:56:03;;;;;;;3.90;1.70;;;;;;;20.13;34.49;101047.66;5039895;28;20024;-68
2021/04/30 04:58:28;;;;;;;4.97;1.73;;;;;;;20.12;34.63;101038.69;5049954;28;20070;-68
2021/04/30 05:00:54;;;;;;;4.38;1.70;;;;;;;20.12;34.32;101044.06;5066995;28;20042;-68
2021/04/30 05:03:19;;;;;;;3.92;1.60;;;;;;;20.11;34.39;101038.78;5047525;28;20032;-68
2021/04/30 05:05:44;;;;;;;3.75;1.58;;;;;;;20.13;34.17;101051.22;5032526;28;20077;-68
2021/04/30 05:08:10;;;;;;;3.67;1.98;;;;;;;20.14;34.23;101047.56;5066035;28;20036;-68
2021/04/30 05:10:35;;;;;;;4.57;1.73;;;;;;;20.17;34.61;101060.00;5044741;28;20533;-68
2021/04/30 05:13:00;;;;;;;4.07;1.67;;;;;;;20.19;34.51;101059.91;5059258;28;20036;-68
2021/04/30 05:15:26;;;;;;;3.35;1.33;;;;;;;20.16;34.48;101056.44;5031345;28;20046;-68
2021/04/30 05:17:51;;;;;;;3.22;1.38;;;;;;;20.18;34.51;101064.44;5049040;28;20024;-66
2021/04/30 05:20:16;;;;;;;4.53;2.03;;;;;;;19.91;34.93;101068.72;5058808;28;20021;-66
2021/04/30 05:22:43;;;;;;;7.20;3.00;;;;;;;19.93;34.46;101071.31;5064247;28;20062;-66
2021/04/30 05:25:09;;;;;;;7.15;2.25;;;;;;;20.01;36.10;101078.97;5029369;28;20643;-67
2021/04/30 05:27:35;;;;;;;5.50;2.33;;;;;;;20.04;34.55;101081.47;5026827;28;20031;-67
2021/04/30 05:30:00;;;;;;;10.23;2.75;;;;;;;20.11;34.62;101082.84;5047312;28;20047;-67
2021/04/30 05:32:26;;;;;;;6.90;2.60;;;;;;;20.17;36.02;101081.63;5061448;28;20039;-67
2021/04/30 05:34:51;;;;;;;5.28;2.33;;;;;;;20.16;34.62;101086.13;5058486;28;20013;-67
2021/04/30 05:37:17;;;;;;;3.63;1.90;;;;;;;20.17;35.01;101078.91;5064420;28;20499;-67
2021/04/30 05:39:42;;;;;;;6.00;2.10;;;;;;;20.17;34.54;101084.31;5065492;28;20020;-67
2021/04/30 05:42:08;;;;;;;7.07;2.22;;;;;;;20.19;34.83;101095.03;5057887;28;20021;-67
2021/04/30 05:44:33;;;;;;;4.80;1.80;;;;;;;20.16;35.79;101087.97;5067727;28;20021;-67
2021/04/30 05:46:58;;;;;;;7.72;2.17;;;;;;;20.13;34.94;101086.34;5065295;28;20028;-67
2021/04/30 05:49:24;;;;;;;7.45;2.13;;;;;;;20.16;36.07;101096.94;5048675;28;20482;-67
2021/04/30 05:51:49;;;;;;;7.68;2.45;;;;;;;20.16;35.32;101086.13;5058069;28;20098;-67
2021/04/30 05:54:14;;;;;;;5.50;2.20;;;;;;;20.21;35.40;101085.88;5058216;28;20028;-67
2021/04/30 05:56:40;;;;;;;5.22;1.95;;;;;;;20.22;34.95;101078.63;5055371;28;20034;-69
2021/04/30 05:59:05;;;;;;;5.68;2.05;;;;;;;20.27;34.92;101082.78;5041344;28;20025;-69
2021/04/30 06:01:30;;;;;;;5.80;2.30;;;;;;;20.25;34.51;101083.84;5063645;28;20035;-68
2021/04/30 06:03:56;;;;;;;6.78;2.50;;;;;;;20.21;35.08;101096.69;5043611;28;20024;-68
2021/04/30 06:06:21;;;;;;;5.78;2.03;;;;;;;20.19;36.86;101095.03;5038719;28;20016;-69
2021/04/30 06:08:46;;;;;;;5.53;2.30;;;;;;;20.22;35.04;101093.00;5045233;28;20077;-68
2021/04/30 06:11:12;;;;;;;4.68;1.98;;;;;;;20.22;34.72;101098.41;5063221;28;20024;-68
2021/04/30 06:13:37;;;;;;;13.93;4.07;;;;;;;20.05;35.47;101099.38;5012299;28;20028;-71
2021/04/30 06:16:04;;;;;;;17.85;3.47;;;;;;;20.14;36.92;101098.88;5029190;28;20025;-68
2021/04/30 06:18:29;;;;;;;7.93;2.15;;;;;;;20.24;37.53;101090.19;5043187;28;20028;-69
2021/04/30 06:20:55;;;;;;;9.48;2.55;;;;;;;20.24;38.41;101091.09;5030891;28;20041;-70
2021/04/30 06:23:20;;;;;;;12.48;2.83;;;;;;;20.30;36.85;101100.66;5014114;28;20025;-69
2021/04/30 06:25:45;;;;;;;9.60;2.40;;;;;;;20.32;36.96;101108.66;5066471;28;20071;-69
2021/04/30 06:28:11;;;;;;;12.48;3.40;;;;;;;20.32;36.92;101104.13;5063475;28;20478;-67
2021/04/30 06:30:36;;;;;;;18.58;2.95;;;;;;;20.38;37.20;101102.88;5041649;28;20036;-68
2021/04/30 06:33:01;;;;;;;9.70;2.53;;;;;;;20.26;36.82;101099.09;5065318;28;20054;-67
2021/04/30 06:35:29;;;;;;;8.40;2.38;;;;;;;20.23;38.25;101104.69;5046209;28;20040;-68
2021/04/30 06:37:54;;;;;;;7.35;3.25;;;;;;;20.20;37.01;101094.06;5044309;28;20580;-68
2021/04/30 06:40:19;;;;;;;9.57;2.85;;;;;;;20.26;36.92;101104.50;5052025;28;20078;-67
2021/04/30 06:42:45;;;;;;;8.88;2.50;;;;;;;20.27;37.32;101109.78;5051807;28;20040;-66
2021/04/30 06:45:11;;;;;;;7.18;2.30;;;;;;;20.26;37.07;101108.06;5071420;28;20035;-67
2021/04/30 06:47:37;;;;;;;16.35;2.95;;;;;;;20.36;39.87;101104.81;5051420;28;20556;-67
2021/04/30 06:50:02;;;;;;;5.97;2.30;;;;;;;20.36;36.44;101112.91;5052133;28;20032;-67
2021/04/30 06:52:28;;;;;;;8.75;2.45;;;;;;;20.33;37.51;101115.78;5068985;28;20025;-67
2021/04/30 06:54:53;;;;;;;8.05;2.20;;;;;;;20.37;36.95;101111.94;5045453;28;20471;-68
2021/04/30 06:57:18;;;;;;;5.72;2.33;;;;;;;20.41;37.93;101110.78;5064055;28;20026;-67
2021/04/30 06:59:44;;;;;;;6.45;2.05;;;;;;;20.37;39.98;101107.41;5061558;28;20028;-66
2021/04/30 07:02:10;;;;;;;8.68;2.40;;;;;;;20.36;36.54;101111.06;5069967;28;20028;-67
2021/04/30 07:04:35;;;;;;;8.27;2.70;;;;;;;20.38;36.79;101111.00;5034128;28;20105;-67
2021/04/30 07:07:01;;;;;;;11.70;2.13;;;;;;;20.41;37.09;101105.38;5049524;28;20474;-70
2021/04/30 07:09:26;;;;;;;5.93;1.88;;;;;;;20.46;36.54;101105.09;5047849;28;20029;-68
2021/04/30 07:11:52;;;;;;;6.80;2.25;;;;;;;20.47;36.24;101120.34;5052022;28;20037;-68
2021/04/30 07:14:17;;;;;;;5.95;2.17;;;;;;;20.45;36.64;101115.06;5063661;28;20020;-68
2021/04/30 07:16:42;;;;;;;8.02;2.88;;;;;;;20.47;36.39;101118.50;5067475;28;20046;-68
2021/04/30 07:19:08;;;;;;;7.18;2.50;;;;;;;20.47;35.61;101120.34;5067462;28;20541;-68
2021/04/30 07:21:33;;;;;;;7.55;2.45;;;;;;;20.46;36.42;101122.19;5070133;28;20031;-69
2021/04/30 07:23:58;;;;;;;9.25;2.20;;;;;;;20.52;36.46;101126.34;5042414;28;20397;-69
2021/04/30 07:26:24;;;;;;;8.05;2.47;;;;;;;20.57;36.91;101126.03;5049943;28;20024;-68
2021/04/30 07:28:49;;;;;;;6.85;2.47;;;;;;;20.53;36.48;101138.88;5038678;28;20032;-68
2021/04/30 07:31:15;;;;;;;7.00;2.83;;;;;;;20.52;36.41;101132.63;5065360;28;20017;-68
2021/04/30 07:33:46;;;;;;;6.38;2.60;;;;;;;20.52;37.94;101137.16;5047599;28;20025;-68
2021/04/30 07:36:12;;;;;;;8.00;2.60;;;;;;;20.49;37.32;101137.34;5063896;28;20024;-68
2021/04/30 07:38:37;;;;;;;7.97;3.00;;;;;;;20.50;36.65;101134.53;5061760;28;20212;-68
2021/04/30 07:41:03;;;;;;;5.53;2.70;;;;;;;20.50;36.47;101129.13;5065677;28;20374;-68
2021/04/30 07:43:28;;;;;;;6.30;2.67;;;;;;;20.52;36.00;101127.22;5059220;28;20040;-67
2021/04/30 07:45:54;;;;;;;6.15;2.58;;;;;;;20.55;36.78;101119.88;5030843;28;20488;-68
2021/04/30 07:48:19;;;;;;;8.45;2.92;;;;;;;20.54;36.55;101112.72;5066328;28;20028;-68
2021/04/30 07:50:44;;;;;;;8.70;3.00;;;;;;;20.56;36.25;101116.22;5051733;28;20033;-69
2021/04/30 07:53:10;;;;;;;7.22;2.67;;;;;;;20.59;35.87;101118.72;5066751;28;20033;-68
2021/04/30 07:55:35;;;;;;;7.60;2.60;;;;;;;20.57;36.22;101117.94;5044405;28;20034;-68
2021/04/30 07:58:00;;;;;;;8.27;3.40;;;;;;;20.57;35.70;101116.09;5065231;28;20085;-68
2021/04/30 08:00:26;;;;;;;5.78;2.80;;;;;;;20.61;36.73;101117.66;5044586;28;20096;-68
2021/04/30 08:02:51;;;;;;;6.55;2.67;;;;;;;20.62;36.09;101116.69;5048400;28;20022;-68
2021/04/30 08:05:17;;;;;;;5.10;2.00;;;;;;;20.57;36.33;101116.09;5060129;28;20082;-68
2021/04/30 08:07:42;;;;;;;7.18;2.50;;;;;;;20.61;35.69;101123.06;5050151;28;20032;-68
2021/04/30 08:10:11;;;;;;;7.30;2.67;;;;;;;20.57;36.88;101121.50;5068655;28;20043;-67
2021/04/30 08:12:37;;;;;;;8.02;2.33;;;;;;;20.60;36.33;101121.31;5049460;28;20025;-67
2021/04/30 08:15:03;;;;;;;6.90;2.83;;;;;;;20.61;35.73;101119.47;5050218;28;20536;-68
2021/04/30 08:17:28;;;;;;;6.00;2.70;;;;;;;20.63;35.57;101123.84;5032687;28;20517;-68
2021/04/30 08:19:57;;;;;;;7.10;2.53;;;;;;;20.62;35.68;101127.50;5063880;28;20031;-68
2021/04/30 08:22:23;;;;;;;6.38;2.95;;;;;;;20.66;35.24;101138.13;5044678;28;20032;-68
2021/04/30 08:24:48;;;;;;;8.13;2.80;;;;;;;20.66;35.36;101138.97;5035711;28;20052;-68
2021/04/30 08:27:14;;;;;;;6.68;2.13;;;;;;;20.64;36.74;101135.50;5066549;28;20025;-69
2021/04/30 08:29:39;;;;;;;13.75;3.40;;;;;;;20.77;35.84;101130.19;5065332;28;20028;-70
2021/04/30 08:32:04;;;;;;;9.48;2.70;;;;;;;20.75;36.27;101134.81;5045241;28;20393;-70
2021/04/30 08:34:30;;;;;;;10.65;2.50;;;;;;;20.70;37.65;101139.66;5067389;28;20206;-70
2021/04/30 08:36:55;;;;;;;10.18;2.60;;;;;;;20.75;38.23;101137.53;5044853;28;20036;-68
2021/04/30 08:39:20;;;;;;;12.65;3.10;;;;;;;20.81;36.37;101137.16;5063868;28;20026;-69
2021/04/30 08:41:47;;;;;;;12.13;3.60;;;;;;;20.77;36.63;101141.00;5064216;28;20371;-68
2021/04/30 08:44:13;;;;;;;15.55;3.28;;;;;;;20.74;37.41;101143.91;5043097;28;21797;-68
2021/04/30 08:46:38;;;;;;;7.25;2.67;;;;;;;20.75;38.52;101143.81;5059059;28;20566;-69
2021/04/30 08:49:08;;;;;;;11.48;3.40;;;;;;;20.70;36.12;101132.44;5049480;28;20032;-68
2021/04/30 08:51:34;;;;;;;9.90;3.65;;;;;;;20.74;37.40;101150.19;5032650;28;20021;-68
2021/04/30 08:54:00;;;;;;;11.88;3.28;;;;;;;20.88;35.98;101151.16;5028088;28;20028;-67
2021/04/30 08:56:25;;;;;;;8.18;3.20;;;;;;;20.85;36.88;101154.94;5054116;28;20086;-68
2021/04/30 08:58:51;;;;;;;12.73;2.78;;;;;;;20.78;37.13;101152.69;5054393;28;20479;-68
2021/04/30 09:01:16;;;;;;;13.23;3.25;;;;;;;20.79;37.32;101160.72;5027554;28;20609;-67
2021/04/30 09:03:42;;;;;;;9.30;2.83;;;;;;;20.78;38.62;101164.41;5040967;28;20028;-67
2021/04/30 09:06:07;;;;;;;10.57;3.17;;;;;;;20.79;36.83;101166.13;5062567;28;20024;-68
2021/04/30 09:08:46;;;;;;;8.98;3.33;;;;;;;20.81;36.32;101160.59;5036737;28;20058;-67
2021/04/30 09:11:34;;;;;;;9.82;2.47;;;;;;;20.75;37.51;101159.16;5028939;28;20507;-67
2021/04/30 09:14:22;;;;;;;9.15;2.90;;;;;;;20.81;38.43;101163.31;5033598;28;20108;-67
2021/04/30 09:17:15;;;;;;;7.72;3.08;;;;;;;20.81;36.91;101168.72;5044809;28;20052;-67
2021/04/30 09:19:40;;;;;;;7.85;2.65;;;;;;;20.84;39.01;101165.84;5043527;28;20016;-67
2021/04/30 09:22:06;;;;;;;7.10;2.72;;;;;;;20.81;37.69;101172.31;5057587;28;20028;-67
2021/04/30 09:24:32;;;;;;;9.02;3.05;;;;;;;20.82;36.16;101173.19;5037215;28;20028;-67
2021/04/30 09:26:57;;;;;;;11.05;2.75;;;;;;;20.88;36.25;101173.66;5062475;28;20025;-67
2021/04/30 09:29:23;;;;;;;6.60;2.97;;;;;;;20.82;37.10;101178.59;5044089;28;20029;-67
2021/04/30 09:31:49;;;;;;;7.38;2.42;;;;;;;20.83;37.53;101175.78;5039706;28;20025;-67
2021/04/30 09:34:18;;;;;;;11.50;2.85;;;;;;;20.82;37.86;101176.75;5038108;28;20116;-67
2021/04/30 09:37:12;;;;;;;7.88;2.70;;;;;;;20.91;36.46;101186.13;5053187;28;20017;-67
2021/04/30 09:39:50;;;;;;;6.28;2.55;;;;;;;20.90;37.14;101180.81;5042312;28;20510;-67
2021/04/30 09:42:17;;;;;;;8.45;2.72;;;;;;;20.87;37.74;101179.16;5059402;28;20036;-67
2021/04/30 09:44:45;;;;;;;8.55;2.95;;;;;;;21.00;36.04;101168.47;5031953;28;20536;-69
2021/04/30 09:47:27;;;;;;;8.23;2.50;;;;;;;20.99;36.97;101175.72;5024877;28;20064;-67
2021/04/30 09:57:38;;;;;;;11.18;3.90;;;;;;;20.80;37.32;101178.69;5133660;22;20049;-67
2021/04/30 10:00:08;;;;;;;9.45;3.78;;;;;;;20.82;37.60;101182.16;5056386;28;20139;-67
2021/04/30 10:02:34;;;;;;;13.13;3.80;;;;;;;20.80;37.54;101177.81;5036351;28;20062;-64
2021/04/30 10:05:10;;;;;;;11.13;4.13;;;;;;;20.77;37.20;101169.91;5040588;28;20028;-69
2021/04/30 10:07:36;;;;;;;11.50;4.45;;;;;;;20.81;37.08;101171.41;5045585;28;20497;-68
2021/04/30 10:10:10;;;;;;;10.85;5.53;;;;;;;20.79;36.53;101160.72;5033240;22;20165;-69
2021/04/30 10:12:37;;;;;;;13.98;3.90;;;;;;;20.97;37.47;101160.56;5005769;28;20209;-64
2021/04/30 10:15:03;;;;;;;11.27;3.45;;;;;;;20.96;37.16;101151.59;5013116;28;20494;-64
2021/04/30 10:17:28;;;;;;;10.55;3.58;;;;;;;21.02;38.10;101158.44;5016218;28;20103;-66
2021/04/30 10:19:53;;;;;;;13.48;3.60;;;;;;;21.08;36.82;101138.25;5013196;28;20098;-65
2021/04/30 10:22:24;;;;;;;11.90;3.65;;;;;;;21.13;35.93;101140.66;5008225;28;20113;-65
2021/04/30 10:24:51;;;;;;;13.90;3.40;;;;;;;21.32;36.32;101143.91;5001224;28;20030;-70
2021/04/30 10:27:18;;;;;;;13.48;4.18;;;;;;;21.26;38.54;101143.44;4973461;28;20376;-66
2021/04/30 10:29:47;;;;;;;11.57;3.65;;;;;;;21.28;37.01;101144.22;5005546;28;20040;-67
2021/04/30 10:32:12;;;;;;;11.93;3.67;;;;;;;21.27;37.16;101142.44;4997182;28;20034;-67
2021/04/30 10:34:39;;;;;;;12.93;3.50;;;;;;;21.30;36.59;101142.28;5011970;28;20433;-66
2021/04/30 10:37:05;;;;;;;14.45;6.45;;;;;;;20.95;36.87;101147.13;5008412;28;20072;-67
2021/04/30 10:39:36;;;;;;;16.65;7.32;;;;;;;20.70;37.29;101145.94;5007710;28;20041;-66
2021/04/30 10:42:11;;;;;;;12.13;5.10;;;;;;;20.94;38.78;101142.66;5003075;28;20033;-64
2021/04/30 10:44:44;;;;;;;10.52;4.88;;;;;;;21.04;38.01;101148.41;5005187;28;20033;-66
2021/04/30 10:47:12;;;;;;;;;;;;;;;21.06;38.14;101140.19;4991942;28;20057;-63
2021/04/30 10:49:38;;;;;;;15.05;4.13;;;;;;;21.08;39.16;101136.41;5015835;28;19909;-66
2021/04/30 10:52:06;;;;;;;13.55;4.53;;;;;;;21.06;37.84;101135.63;5011591;28;20414;-64
2021/04/30 10:54:33;;;;;;;15.07;4.63;;;;;;;21.06;38.90;101135.63;5013917;28;20504;-64
2021/04/30 10:57:06;;;;;;;15.95;4.00;;;;;;;21.08;37.31;101144.50;5024827;28;20117;-64
2021/04/30 10:59:40;;;;;;;;;;;;;;;21.10;37.82;101134.47;5009756;28;20025;-63
2021/04/30 11:02:26;;;;;;;12.18;4.22;;;;;;;21.13;37.95;101144.22;5023331;28;20293;-64
2021/04/30 11:05:10;;;;;;;14.13;4.82;;;;;;;21.15;39.00;101133.31;5012168;28;20068;-64
2021/04/30 11:07:50;;;;;;;11.40;4.20;;;;;;;21.14;38.59;101128.88;4995669;28;20113;-64
2021/04/30 11:10:22;;;;;;;17.98;4.65;;;;;;;21.12;37.48;101128.94;5003934;28;20070;-64
2021/04/30 11:12:57;;;;;;;11.50;4.40;;;;;;;21.12;37.62;101118.13;5008654;28;20030;-65
2021/04/30 11:15:23;;;;;;;10.73;4.80;;;;;;;21.14;37.69;101121.63;5012823;28;20527;-65
2021/04/30 11:18:02;;;;;;;13.10;4.93;;;;;;;21.15;38.14;101123.38;5023757;28;20100;-65
2021/04/30 11:20:31;;;;;;;12.65;4.22;;;;;;;21.23;38.20;101117.44;5003466;28;20448;-65
2021/04/30 11:23:18;;;;;;;11.95;4.75;;;;;;;21.25;39.25;101117.38;5008188;28;20148;-68
2021/04/30 11:25:59;;;;;;;11.10;4.38;;;;;;;21.30;37.40;101110.66;5009792;28;20029;-67
2021/04/30 11:28:25;;;;;;;12.05;4.70;;;;;;;21.33;37.54;101110.47;5013894;28;20030;-66
2021/04/30 11:31:13;;;;;;;15.65;4.85;;;;;;;21.36;36.90;101106.69;5004428;28;20090;-66